sensor_id;sensor_type;location;lat;lon;timestamp;temperature;humidity
37322;DHT22;23697;48.684;9.032;2022-12-07T00:01:42;2.80;90.70
37322;DHT22;23697;48.684;9.032;2022-12-07T00:04:12;2.90;90.70
37322;DHT22;23697;48.684;9.032;2022-12-07T00:06:41;2.90;90.70
37322;DHT22;23697;48.684;9.032;2022-12-07T00:09:11;2.90;90.70
37322;DHT22;23697;48.684;9.032;2022-12-07T00:11:39;2.90;90.70
37322;DHT22;23697;48.684;9.032;2022-12-07T00:14:10;2.90;90.70
37322;DHT22;23697;48.684;9.032;2022-12-07T00:16:37;3.00;90.70
37322;DHT22;23697;48.684;9.032;2022-12-07T00:19:04;2.90;90.70
37322;DHT22;23697;48.684;9.032;2022-12-07T00:21:33;2.90;90.70
37322;DHT22;23697;48.684;9.032;2022-12-07T00:24:02;3.00;90.60
37322;DHT22;23697;48.684;9.032;2022-12-07T00:26:30;2.90;90.60
37322;DHT22;23697;48.684;9.032;2022-12-07T00:29:01;2.90;90.60
37322;DHT22;23697;48.684;9.032;2022-12-07T00:31:30;3.00;90.60
37322;DHT22;23697;48.684;9.032;2022-12-07T00:34:12;3.00;90.60
37322;DHT22;23697;48.684;9.032;2022-12-07T00:36:39;2.90;90.60
37322;DHT22;23697;48.684;9.032;2022-12-07T00:39:06;2.90;90.50
37322;DHT22;23697;48.684;9.032;2022-12-07T00:41:34;2.90;90.50
37322;DHT22;23697;48.684;9.032;2022-12-07T00:44:02;2.80;90.40
37322;DHT22;23697;48.684;9.032;2022-12-07T00:46:29;2.90;90.40
37322;DHT22;23697;48.684;9.032;2022-12-07T00:48:56;2.90;90.40
37322;DHT22;23697;48.684;9.032;2022-12-07T00:51:24;2.90;90.40
37322;DHT22;23697;48.684;9.032;2022-12-07T00:53:52;2.90;90.40
37322;DHT22;23697;48.684;9.032;2022-12-07T00:56:21;2.90;90.30
37322;DHT22;23697;48.684;9.032;2022-12-07T00:58:52;2.90;90.20
37322;DHT22;23697;48.684;9.032;2022-12-07T01:01:21;2.80;90.20
37322;DHT22;23697;48.684;9.032;2022-12-07T01:03:48;2.80;90.20
37322;DHT22;23697;48.684;9.032;2022-12-07T01:06:16;2.80;90.20
37322;DHT22;23697;48.684;9.032;2022-12-07T01:08:43;2.80;90.20
37322;DHT22;23697;48.684;9.032;2022-12-07T01:11:14;3.00;90.20
37322;DHT22;23697;48.684;9.032;2022-12-07T01:13:41;3.00;90.00
37322;DHT22;23697;48.684;9.032;2022-12-07T01:16:11;3.00;90.10
37322;DHT22;23697;48.684;9.032;2022-12-07T01:18:40;2.90;90.10
37322;DHT22;23697;48.684;9.032;2022-12-07T01:21:10;2.80;90.10
37322;DHT22;23697;48.684;9.032;2022-12-07T01:23:38;2.80;90.00
37322;DHT22;23697;48.684;9.032;2022-12-07T01:26:07;2.80;90.10
37322;DHT22;23697;48.684;9.032;2022-12-07T01:28:34;2.70;90.00
37322;DHT22;23697;48.684;9.032;2022-12-07T01:31:03;2.80;89.90
37322;DHT22;23697;48.684;9.032;2022-12-07T01:33:32;2.80;89.90
37322;DHT22;23697;48.684;9.032;2022-12-07T01:36:05;2.80;89.90
37322;DHT22;23697;48.684;9.032;2022-12-07T01:38:33;2.80;89.80
37322;DHT22;23697;48.684;9.032;2022-12-07T01:41:01;2.70;89.80
37322;DHT22;23697;48.684;9.032;2022-12-07T01:43:31;2.70;89.80
37322;DHT22;23697;48.684;9.032;2022-12-07T01:45:58;2.70;89.80
37322;DHT22;23697;48.684;9.032;2022-12-07T01:48:28;2.70;89.80
37322;DHT22;23697;48.684;9.032;2022-12-07T01:51:01;2.70;89.80
37322;DHT22;23697;48.684;9.032;2022-12-07T01:53:33;2.70;89.70
37322;DHT22;23697;48.684;9.032;2022-12-07T01:56:04;2.70;89.60
37322;DHT22;23697;48.684;9.032;2022-12-07T01:58:32;2.60;89.50
37322;DHT22;23697;48.684;9.032;2022-12-07T02:00:59;2.60;89.50
37322;DHT22;23697;48.684;9.032;2022-12-07T02:03:31;2.60;89.60
37322;DHT22;23697;48.684;9.032;2022-12-07T02:05:59;2.60;89.50
37322;DHT22;23697;48.684;9.032;2022-12-07T02:08:26;2.60;89.50
37322;DHT22;23697;48.684;9.032;2022-12-07T02:10:55;2.60;89.40
37322;DHT22;23697;48.684;9.032;2022-12-07T02:13:24;2.50;89.30
37322;DHT22;23697;48.684;9.032;2022-12-07T02:16:06;2.50;89.40
37322;DHT22;23697;48.684;9.032;2022-12-07T02:18:45;2.50;89.50
37322;DHT22;23697;48.684;9.032;2022-12-07T02:21:20;2.60;89.50
37322;DHT22;23697;48.684;9.032;2022-12-07T02:24:22;2.60;89.50
37322;DHT22;23697;48.684;9.032;2022-12-07T02:30:00;2.60;89.40
37322;DHT22;23697;48.684;9.032;2022-12-07T02:32:35;2.60;89.40
37322;DHT22;23697;48.684;9.032;2022-12-07T02:35:08;2.60;89.40
37322;DHT22;23697;48.684;9.032;2022-12-07T02:37:39;2.60;89.40
37322;DHT22;23697;48.684;9.032;2022-12-07T02:40:11;2.60;89.30
37322;DHT22;23697;48.684;9.032;2022-12-07T03:44:06;2.40;89.40
37322;DHT22;23697;48.684;9.032;2022-12-07T03:46:37;2.30;89.40
37322;DHT22;23697;48.684;9.032;2022-12-07T03:49:13;2.30;89.50
37322;DHT22;23697;48.684;9.032;2022-12-07T03:51:49;2.30;89.50
37322;DHT22;23697;48.684;9.032;2022-12-07T03:54:21;2.30;89.60
37322;DHT22;23697;48.684;9.032;2022-12-07T03:56:49;2.30;89.60
37322;DHT22;23697;48.684;9.032;2022-12-07T03:59:19;2.30;89.70
37322;DHT22;23697;48.684;9.032;2022-12-07T04:01:53;2.30;89.70
37322;DHT22;23697;48.684;9.032;2022-12-07T04:04:20;2.30;89.70
37322;DHT22;23697;48.684;9.032;2022-12-07T04:06:47;2.30;89.70
37322;DHT22;23697;48.684;9.032;2022-12-07T04:09:14;2.30;89.70
37322;DHT22;23697;48.684;9.032;2022-12-07T04:11:42;2.30;89.70
37322;DHT22;23697;48.684;9.032;2022-12-07T04:14:09;2.30;89.80
37322;DHT22;23697;48.684;9.032;2022-12-07T04:16:46;2.20;89.80
37322;DHT22;23697;48.684;9.032;2022-12-07T04:19:13;2.20;89.80
37322;DHT22;23697;48.684;9.032;2022-12-07T04:21:40;2.30;89.90
37322;DHT22;23697;48.684;9.032;2022-12-07T04:24:07;2.20;89.80
37322;DHT22;23697;48.684;9.032;2022-12-07T04:26:34;2.20;89.90
37322;DHT22;23697;48.684;9.032;2022-12-07T04:29:01;2.20;89.90
37322;DHT22;23697;48.684;9.032;2022-12-07T04:31:28;2.20;89.90
37322;DHT22;23697;48.684;9.032;2022-12-07T04:33:56;2.20;89.90
37322;DHT22;23697;48.684;9.032;2022-12-07T04:36:23;2.20;89.90
37322;DHT22;23697;48.684;9.032;2022-12-07T04:38:52;2.20;89.90
37322;DHT22;23697;48.684;9.032;2022-12-07T04:41:20;2.20;89.80
37322;DHT22;23697;48.684;9.032;2022-12-07T04:43:53;2.30;89.70
37322;DHT22;23697;48.684;9.032;2022-12-07T04:46:20;2.30;89.60
37322;DHT22;23697;48.684;9.032;2022-12-07T04:48:47;2.20;89.50
37322;DHT22;23697;48.684;9.032;2022-12-07T04:51:19;2.30;89.50
37322;DHT22;23697;48.684;9.032;2022-12-07T04:53:46;2.20;89.50
37322;DHT22;23697;48.684;9.032;2022-12-07T04:56:13;2.20;89.60
37322;DHT22;23697;48.684;9.032;2022-12-07T04:58:55;2.20;89.50
37322;DHT22;23697;48.684;9.032;2022-12-07T05:01:36;2.10;89.40
37322;DHT22;23697;48.684;9.032;2022-12-07T05:04:03;2.10;89.50
37322;DHT22;23697;48.684;9.032;2022-12-07T05:06:32;2.10;89.40
37322;DHT22;23697;48.684;9.032;2022-12-07T05:09:02;2.00;89.40
37322;DHT22;23697;48.684;9.032;2022-12-07T05:11:29;2.00;89.30
37322;DHT22;23697;48.684;9.032;2022-12-07T05:14:11;1.80;89.30
37322;DHT22;23697;48.684;9.032;2022-12-07T05:16:39;1.80;89.40
37322;DHT22;23697;48.684;9.032;2022-12-07T05:19:06;1.80;89.40
37322;DHT22;23697;48.684;9.032;2022-12-07T05:21:35;1.70;89.40
37322;DHT22;23697;48.684;9.032;2022-12-07T05:24:02;1.70;89.50
37322;DHT22;23697;48.684;9.032;2022-12-07T05:26:29;1.70;89.60
37322;DHT22;23697;48.684;9.032;2022-12-07T05:28:57;1.70;89.60
37322;DHT22;23697;48.684;9.032;2022-12-07T05:31:25;1.70;89.60
37322;DHT22;23697;48.684;9.032;2022-12-07T05:33:52;1.60;89.60
37322;DHT22;23697;48.684;9.032;2022-12-07T05:36:20;1.60;89.50
37322;DHT22;23697;48.684;9.032;2022-12-07T05:38:48;1.50;89.50
37322;DHT22;23697;48.684;9.032;2022-12-07T05:41:17;1.40;89.50
37322;DHT22;23697;48.684;9.032;2022-12-07T05:44:02;1.40;89.40
37322;DHT22;23697;48.684;9.032;2022-12-07T05:46:29;1.30;89.40
37322;DHT22;23697;48.684;9.032;2022-12-07T05:48:56;1.30;89.40
37322;DHT22;23697;48.684;9.032;2022-12-07T05:51:23;1.30;89.40
37322;DHT22;23697;48.684;9.032;2022-12-07T05:53:51;1.10;89.40
37322;DHT22;23697;48.684;9.032;2022-12-07T05:56:18;1.10;89.40
37322;DHT22;23697;48.684;9.032;2022-12-07T05:58:45;1.00;89.50
37322;DHT22;23697;48.684;9.032;2022-12-07T06:01:29;0.90;89.50
37322;DHT22;23697;48.684;9.032;2022-12-07T06:03:56;0.80;89.60
37322;DHT22;23697;48.684;9.032;2022-12-07T06:06:23;0.80;89.60
37322;DHT22;23697;48.684;9.032;2022-12-07T06:08:51;0.70;89.60
37322;DHT22;23697;48.684;9.032;2022-12-07T06:11:18;0.70;89.60
37322;DHT22;23697;48.684;9.032;2022-12-07T06:14:02;0.70;89.60
37322;DHT22;23697;48.684;9.032;2022-12-07T06:16:29;0.70;89.60
37322;DHT22;23697;48.684;9.032;2022-12-07T06:18:56;0.80;89.70
37322;DHT22;23697;48.684;9.032;2022-12-07T06:21:23;0.90;89.70
37322;DHT22;23697;48.684;9.032;2022-12-07T06:23:52;0.90;89.90
37322;DHT22;23697;48.684;9.032;2022-12-07T06:26:19;1.00;90.00
37322;DHT22;23697;48.684;9.032;2022-12-07T06:28:46;1.00;90.00
37322;DHT22;23697;48.684;9.032;2022-12-07T06:31:13;1.10;90.10
37322;DHT22;23697;48.684;9.032;2022-12-07T06:33:40;1.10;90.20
37322;DHT22;23697;48.684;9.032;2022-12-07T06:36:08;1.10;90.20
37322;DHT22;23697;48.684;9.032;2022-12-07T06:38:35;1.10;90.20
37322;DHT22;23697;48.684;9.032;2022-12-07T06:41:03;1.20;90.20
37322;DHT22;23697;48.684;9.032;2022-12-07T06:43:30;1.10;90.30
37322;DHT22;23697;48.684;9.032;2022-12-07T06:45:57;1.20;90.30
37322;DHT22;23697;48.684;9.032;2022-12-07T06:48:24;1.30;90.30
37322;DHT22;23697;48.684;9.032;2022-12-07T06:50:51;1.20;90.30
37322;DHT22;23697;48.684;9.032;2022-12-07T06:53:18;1.20;90.30
37322;DHT22;23697;48.684;9.032;2022-12-07T06:55:44;1.20;90.30
37322;DHT22;23697;48.684;9.032;2022-12-07T06:58:13;1.30;90.30
37322;DHT22;23697;48.684;9.032;2022-12-07T07:00:39;1.30;90.30
37322;DHT22;23697;48.684;9.032;2022-12-07T07:03:06;1.20;90.30
37322;DHT22;23697;48.684;9.032;2022-12-07T07:05:33;1.30;90.30
37322;DHT22;23697;48.684;9.032;2022-12-07T07:08:00;1.30;90.30
37322;DHT22;23697;48.684;9.032;2022-12-07T07:10:27;1.30;90.30
37322;DHT22;23697;48.684;9.032;2022-12-07T07:12:54;1.30;90.30
37322;DHT22;23697;48.684;9.032;2022-12-07T07:15:22;1.30;90.30
37322;DHT22;23697;48.684;9.032;2022-12-07T07:17:49;1.30;90.30
37322;DHT22;23697;48.684;9.032;2022-12-07T07:20:16;1.30;90.30
37322;DHT22;23697;48.684;9.032;2022-12-07T07:22:43;1.30;90.30
37322;DHT22;23697;48.684;9.032;2022-12-07T07:25:10;1.30;90.40
37322;DHT22;23697;48.684;9.032;2022-12-07T07:27:37;1.30;90.40
37322;DHT22;23697;48.684;9.032;2022-12-07T07:30:05;1.30;90.40
37322;DHT22;23697;48.684;9.032;2022-12-07T07:32:33;1.40;90.40
37322;DHT22;23697;48.684;9.032;2022-12-07T07:35:00;1.40;90.40
37322;DHT22;23697;48.684;9.032;2022-12-07T07:37:27;1.40;90.40
37322;DHT22;23697;48.684;9.032;2022-12-07T07:39:54;1.40;90.40
37322;DHT22;23697;48.684;9.032;2022-12-07T07:42:21;1.40;90.40
37322;DHT22;23697;48.684;9.032;2022-12-07T07:44:48;1.50;90.40
37322;DHT22;23697;48.684;9.032;2022-12-07T07:47:14;1.50;90.30
37322;DHT22;23697;48.684;9.032;2022-12-07T07:49:43;1.60;90.20
37322;DHT22;23697;48.684;9.032;2022-12-07T07:52:10;1.60;89.90
37322;DHT22;23697;48.684;9.032;2022-12-07T07:54:36;1.60;89.60
37322;DHT22;23697;48.684;9.032;2022-12-07T07:57:03;1.60;89.40
37322;DHT22;23697;48.684;9.032;2022-12-07T07:59:30;1.70;89.40
37322;DHT22;23697;48.684;9.032;2022-12-07T08:01:57;1.60;89.30
37322;DHT22;23697;48.684;9.032;2022-12-07T08:04:24;1.70;89.30
37322;DHT22;23697;48.684;9.032;2022-12-07T08:06:52;1.70;89.20
37322;DHT22;23697;48.684;9.032;2022-12-07T08:09:19;1.70;89.20
37322;DHT22;23697;48.684;9.032;2022-12-07T08:11:46;1.70;89.10
37322;DHT22;23697;48.684;9.032;2022-12-07T08:14:13;1.70;89.00
37322;DHT22;23697;48.684;9.032;2022-12-07T08:16:40;1.80;89.00
37322;DHT22;23697;48.684;9.032;2022-12-07T08:19:07;1.90;88.90
37322;DHT22;23697;48.684;9.032;2022-12-07T08:21:34;1.90;88.50
37322;DHT22;23697;48.684;9.032;2022-12-07T08:24:02;1.90;88.40
37322;DHT22;23697;48.684;9.032;2022-12-07T08:26:29;2.10;88.40
37322;DHT22;23697;48.684;9.032;2022-12-07T08:28:56;2.10;88.40
37322;DHT22;23697;48.684;9.032;2022-12-07T08:31:23;2.10;88.30
37322;DHT22;23697;48.684;9.032;2022-12-07T08:33:50;2.10;88.20
37322;DHT22;23697;48.684;9.032;2022-12-07T08:36:17;2.10;88.00
37322;DHT22;23697;48.684;9.032;2022-12-07T08:38:44;2.10;87.90
37322;DHT22;23697;48.684;9.032;2022-12-07T11:46:25;4.60;79.10
37322;DHT22;23697;48.684;9.032;2022-12-07T11:49:01;4.60;79.00
37322;DHT22;23697;48.684;9.032;2022-12-07T11:51:32;4.60;79.40
37322;DHT22;23697;48.684;9.032;2022-12-07T11:54:04;4.60;79.90
37322;DHT22;23697;48.684;9.032;2022-12-07T11:56:36;4.60;79.20
37322;DHT22;23697;48.684;9.032;2022-12-07T11:59:10;4.70;79.80
37322;DHT22;23697;48.684;9.032;2022-12-07T12:01:48;4.60;79.20
37322;DHT22;23697;48.684;9.032;2022-12-07T12:04:28;4.60;79.60
37322;DHT22;23697;48.684;9.032;2022-12-07T12:06:57;4.70;79.20
37322;DHT22;23697;48.684;9.032;2022-12-07T12:09:29;4.60;79.10
37322;DHT22;23697;48.684;9.032;2022-12-07T12:15:18;4.50;79.30
37322;DHT22;23697;48.684;9.032;2022-12-07T12:20:40;4.40;80.20
37322;DHT22;23697;48.684;9.032;2022-12-07T12:23:12;4.40;80.20
37322;DHT22;23697;48.684;9.032;2022-12-07T12:25:41;4.40;80.10
37322;DHT22;23697;48.684;9.032;2022-12-07T12:28:22;4.30;80.00
37322;DHT22;23697;48.684;9.032;2022-12-07T12:31:05;4.30;80.40
37322;DHT22;23697;48.684;9.032;2022-12-07T12:33:35;4.20;80.90
37322;DHT22;23697;48.684;9.032;2022-12-07T12:36:25;4.10;80.40
37322;DHT22;23697;48.684;9.032;2022-12-07T12:39:09;4.10;80.90
37322;DHT22;23697;48.684;9.032;2022-12-07T12:41:56;4.10;81.20
37322;DHT22;23697;48.684;9.032;2022-12-07T12:47:52;4.20;81.20
37322;DHT22;23697;48.684;9.032;2022-12-07T12:50:23;4.20;81.20
37322;DHT22;23697;48.684;9.032;2022-12-07T12:52:53;4.10;82.10
37322;DHT22;23697;48.684;9.032;2022-12-07T12:55:29;4.20;82.50
37322;DHT22;23697;48.684;9.032;2022-12-07T12:58:31;4.30;82.80
37322;DHT22;23697;48.684;9.032;2022-12-07T13:10:21;4.40;81.30
37322;DHT22;23697;48.684;9.032;2022-12-07T13:12:56;4.40;81.00
37322;DHT22;23697;48.684;9.032;2022-12-07T13:15:33;4.30;81.50
37322;DHT22;23697;48.684;9.032;2022-12-07T13:20:54;4.40;81.30
37322;DHT22;23697;48.684;9.032;2022-12-07T13:23:33;4.30;81.10
37322;DHT22;23697;48.684;9.032;2022-12-07T13:26:13;4.30;80.80
37322;DHT22;23697;48.684;9.032;2022-12-07T13:28:43;4.20;81.50
37322;DHT22;23697;48.684;9.032;2022-12-07T13:31:32;4.30;81.40
37322;DHT22;23697;48.684;9.032;2022-12-07T13:34:00;4.30;81.10
37322;DHT22;23697;48.684;9.032;2022-12-07T13:36:37;4.30;81.20
37322;DHT22;23697;48.684;9.032;2022-12-07T13:39:19;4.30;81.10
37322;DHT22;23697;48.684;9.032;2022-12-07T13:41:51;4.30;81.40
37322;DHT22;23697;48.684;9.032;2022-12-07T13:44:19;4.20;81.20
37322;DHT22;23697;48.684;9.032;2022-12-07T13:46:57;4.20;81.60
37322;DHT22;23697;48.684;9.032;2022-12-07T13:49:28;4.20;81.70
37322;DHT22;23697;48.684;9.032;2022-12-07T13:52:12;4.20;81.70
37322;DHT22;23697;48.684;9.032;2022-12-07T13:54:44;4.20;81.40
37322;DHT22;23697;48.684;9.032;2022-12-07T13:57:13;4.10;81.40
37322;DHT22;23697;48.684;9.032;2022-12-07T13:59:40;4.00;82.00
37322;DHT22;23697;48.684;9.032;2022-12-07T14:02:18;3.90;82.30
37322;DHT22;23697;48.684;9.032;2022-12-07T14:04:45;3.90;81.70
37322;DHT22;23697;48.684;9.032;2022-12-07T14:07:21;3.90;81.80
37322;DHT22;23697;48.684;9.032;2022-12-07T14:09:54;3.80;81.50
37322;DHT22;23697;48.684;9.032;2022-12-07T14:12:23;3.80;81.60
37322;DHT22;23697;48.684;9.032;2022-12-07T14:14:51;3.80;81.50
37322;DHT22;23697;48.684;9.032;2022-12-07T14:17:21;3.80;81.60
37322;DHT22;23697;48.684;9.032;2022-12-07T14:19:50;3.80;81.70
37322;DHT22;23697;48.684;9.032;2022-12-07T14:22:28;3.80;81.60
37322;DHT22;23697;48.684;9.032;2022-12-07T14:25:14;3.70;81.10
37322;DHT22;23697;48.684;9.032;2022-12-07T14:27:50;3.60;81.10
37322;DHT22;23697;48.684;9.032;2022-12-07T14:30:19;3.60;81.30
37322;DHT22;23697;48.684;9.032;2022-12-07T14:32:48;3.60;81.40
37322;DHT22;23697;48.684;9.032;2022-12-07T14:35:18;3.60;81.90
37322;DHT22;23697;48.684;9.032;2022-12-07T14:37:46;3.60;81.60
37322;DHT22;23697;48.684;9.032;2022-12-07T14:40:15;3.60;81.80
37322;DHT22;23697;48.684;9.032;2022-12-07T14:42:43;3.60;81.60
37322;DHT22;23697;48.684;9.032;2022-12-07T14:45:16;3.60;81.70
37322;DHT22;23697;48.684;9.032;2022-12-07T14:47:43;3.60;81.70
37322;DHT22;23697;48.684;9.032;2022-12-07T14:50:12;3.60;81.90
37322;DHT22;23697;48.684;9.032;2022-12-07T14:52:40;3.60;82.20
37322;DHT22;23697;48.684;9.032;2022-12-07T14:55:13;3.60;82.60
37322;DHT22;23697;48.684;9.032;2022-12-07T14:57:41;3.50;82.70
37322;DHT22;23697;48.684;9.032;2022-12-07T15:00:09;3.50;82.90
37322;DHT22;23697;48.684;9.032;2022-12-07T15:02:41;3.50;82.80
37322;DHT22;23697;48.684;9.032;2022-12-07T15:05:08;3.50;82.60
37322;DHT22;23697;48.684;9.032;2022-12-07T15:07:35;3.50;82.30
37322;DHT22;23697;48.684;9.032;2022-12-07T15:10:02;3.50;82.20
37322;DHT22;23697;48.684;9.032;2022-12-07T15:12:29;3.50;82.50
37322;DHT22;23697;48.684;9.032;2022-12-07T15:14:56;3.50;82.80
37322;DHT22;23697;48.684;9.032;2022-12-07T15:17:23;3.40;83.00
37322;DHT22;23697;48.684;9.032;2022-12-07T15:19:51;3.40;83.20
37322;DHT22;23697;48.684;9.032;2022-12-07T15:22:18;3.40;83.40
37322;DHT22;23697;48.684;9.032;2022-12-07T15:24:45;3.50;83.50
37322;DHT22;23697;48.684;9.032;2022-12-07T15:27:11;3.50;82.90
37322;DHT22;23697;48.684;9.032;2022-12-07T15:29:38;3.50;83.00
37322;DHT22;23697;48.684;9.032;2022-12-07T15:32:05;3.50;82.80
37322;DHT22;23697;48.684;9.032;2022-12-07T15:34:32;3.50;82.70
37322;DHT22;23697;48.684;9.032;2022-12-07T15:37:01;3.50;82.90
37322;DHT22;23697;48.684;9.032;2022-12-07T15:39:27;3.50;83.10
37322;DHT22;23697;48.684;9.032;2022-12-07T15:41:54;3.50;83.20
37322;DHT22;23697;48.684;9.032;2022-12-07T15:44:21;3.40;83.80
37322;DHT22;23697;48.684;9.032;2022-12-07T15:47:06;3.40;84.20
37322;DHT22;23697;48.684;9.032;2022-12-07T15:49:33;3.30;84.40
37322;DHT22;23697;48.684;9.032;2022-12-07T15:52:01;3.20;84.60
37322;DHT22;23697;48.684;9.032;2022-12-07T15:54:29;3.20;84.70
37322;DHT22;23697;48.684;9.032;2022-12-07T15:56:56;3.10;84.70
37322;DHT22;23697;48.684;9.032;2022-12-07T15:59:25;3.10;84.90
37322;DHT22;23697;48.684;9.032;2022-12-07T16:01:52;3.00;85.00
37322;DHT22;23697;48.684;9.032;2022-12-07T16:04:19;3.10;85.00
37322;DHT22;23697;48.684;9.032;2022-12-07T16:06:46;3.10;85.20
37322;DHT22;23697;48.684;9.032;2022-12-07T16:09:14;3.00;85.40
37322;DHT22;23697;48.684;9.032;2022-12-07T16:11:41;2.90;85.60
37322;DHT22;23697;48.684;9.032;2022-12-07T16:14:08;2.90;85.70
37322;DHT22;23697;48.684;9.032;2022-12-07T16:16:35;2.90;85.70
37322;DHT22;23697;48.684;9.032;2022-12-07T16:19:02;2.90;85.90
37322;DHT22;23697;48.684;9.032;2022-12-07T16:21:29;2.80;86.00
37322;DHT22;23697;48.684;9.032;2022-12-07T16:23:57;2.80;86.10
37322;DHT22;23697;48.684;9.032;2022-12-07T16:26:26;2.80;86.00
37322;DHT22;23697;48.684;9.032;2022-12-07T16:28:53;2.80;86.10
37322;DHT22;23697;48.684;9.032;2022-12-07T16:31:22;2.80;86.00
37322;DHT22;23697;48.684;9.032;2022-12-07T16:33:50;2.70;86.20
37322;DHT22;23697;48.684;9.032;2022-12-07T16:36:19;2.80;86.10
37322;DHT22;23697;48.684;9.032;2022-12-07T16:38:48;2.80;86.00
37322;DHT22;23697;48.684;9.032;2022-12-07T16:41:15;2.70;86.10
37322;DHT22;23697;48.684;9.032;2022-12-07T16:43:43;2.80;86.00
37322;DHT22;23697;48.684;9.032;2022-12-07T16:46:10;2.70;85.90
37322;DHT22;23697;48.684;9.032;2022-12-07T16:48:38;2.60;85.90
37322;DHT22;23697;48.684;9.032;2022-12-07T16:51:06;2.60;85.80
37322;DHT22;23697;48.684;9.032;2022-12-07T16:53:34;2.60;86.00
37322;DHT22;23697;48.684;9.032;2022-12-07T16:56:01;2.60;86.10
37322;DHT22;23697;48.684;9.032;2022-12-07T16:58:28;2.50;86.10
37322;DHT22;23697;48.684;9.032;2022-12-07T17:00:57;2.50;86.10
37322;DHT22;23697;48.684;9.032;2022-12-07T17:03:23;2.50;85.90
37322;DHT22;23697;48.684;9.032;2022-12-07T17:05:50;2.50;85.90
37322;DHT22;23697;48.684;9.032;2022-12-07T17:08:17;2.50;86.00
37322;DHT22;23697;48.684;9.032;2022-12-07T17:10:44;2.50;86.20
37322;DHT22;23697;48.684;9.032;2022-12-07T17:13:12;2.50;86.30
37322;DHT22;23697;48.684;9.032;2022-12-07T17:15:59;2.50;86.40
37322;DHT22;23697;48.684;9.032;2022-12-07T17:18:28;2.50;86.40
37322;DHT22;23697;48.684;9.032;2022-12-07T17:20:55;2.40;86.40
37322;DHT22;23697;48.684;9.032;2022-12-07T17:23:22;2.40;86.30
37322;DHT22;23697;48.684;9.032;2022-12-07T17:25:51;2.40;86.30
37322;DHT22;23697;48.684;9.032;2022-12-07T17:28:18;2.40;86.20
37322;DHT22;23697;48.684;9.032;2022-12-07T17:30:45;2.40;86.30
37322;DHT22;23697;48.684;9.032;2022-12-07T17:33:13;2.40;86.30
37322;DHT22;23697;48.684;9.032;2022-12-07T17:35:41;2.40;86.20
37322;DHT22;23697;48.684;9.032;2022-12-07T17:38:07;2.30;86.20
37322;DHT22;23697;48.684;9.032;2022-12-07T17:40:34;2.30;86.20
37322;DHT22;23697;48.684;9.032;2022-12-07T17:43:01;2.30;86.30
37322;DHT22;23697;48.684;9.032;2022-12-07T17:45:28;2.30;86.40
37322;DHT22;23697;48.684;9.032;2022-12-07T17:47:55;2.30;86.40
37322;DHT22;23697;48.684;9.032;2022-12-07T17:50:23;2.20;86.50
37322;DHT22;23697;48.684;9.032;2022-12-07T17:53:04;2.30;86.60
37322;DHT22;23697;48.684;9.032;2022-12-07T17:55:37;2.30;86.70
37322;DHT22;23697;48.684;9.032;2022-12-07T17:58:04;2.30;86.70
37322;DHT22;23697;48.684;9.032;2022-12-07T18:00:31;2.30;86.70
37322;DHT22;23697;48.684;9.032;2022-12-07T18:03:04;2.30;86.60
37322;DHT22;23697;48.684;9.032;2022-12-07T18:05:35;2.30;86.50
37322;DHT22;23697;48.684;9.032;2022-12-07T18:08:02;2.40;86.60
37322;DHT22;23697;48.684;9.032;2022-12-07T18:10:29;2.40;86.50
37322;DHT22;23697;48.684;9.032;2022-12-07T18:12:56;2.40;86.50
37322;DHT22;23697;48.684;9.032;2022-12-07T18:15:37;2.40;86.50
37322;DHT22;23697;48.684;9.032;2022-12-07T18:18:04;2.40;86.50
37322;DHT22;23697;48.684;9.032;2022-12-07T18:20:30;2.40;86.40
37322;DHT22;23697;48.684;9.032;2022-12-07T18:22:59;2.40;86.40
37322;DHT22;23697;48.684;9.032;2022-12-07T18:25:25;2.40;86.40
37322;DHT22;23697;48.684;9.032;2022-12-07T18:27:52;2.30;86.40
37322;DHT22;23697;48.684;9.032;2022-12-07T18:30:19;2.30;86.40
37322;DHT22;23697;48.684;9.032;2022-12-07T18:32:46;2.40;86.40
37322;DHT22;23697;48.684;9.032;2022-12-07T18:35:13;2.30;86.30
37322;DHT22;23697;48.684;9.032;2022-12-07T18:37:40;2.30;86.20
37322;DHT22;23697;48.684;9.032;2022-12-07T18:40:09;2.30;86.30
37322;DHT22;23697;48.684;9.032;2022-12-07T18:42:36;2.30;86.30
37322;DHT22;23697;48.684;9.032;2022-12-07T18:45:04;2.30;86.20
37322;DHT22;23697;48.684;9.032;2022-12-07T18:47:31;2.20;86.30
37322;DHT22;23697;48.684;9.032;2022-12-07T18:49:58;2.20;86.30
37322;DHT22;23697;48.684;9.032;2022-12-07T18:52:25;2.20;86.30
37322;DHT22;23697;48.684;9.032;2022-12-07T18:54:52;2.20;86.40
37322;DHT22;23697;48.684;9.032;2022-12-07T18:57:20;2.20;86.60
37322;DHT22;23697;48.684;9.032;2022-12-07T18:59:47;2.20;86.70
37322;DHT22;23697;48.684;9.032;2022-12-07T19:02:14;2.20;86.70
37322;DHT22;23697;48.684;9.032;2022-12-07T19:04:42;2.10;86.70
37322;DHT22;23697;48.684;9.032;2022-12-07T19:07:09;2.20;86.60
37322;DHT22;23697;48.684;9.032;2022-12-07T19:09:36;2.10;86.30
37322;DHT22;23697;48.684;9.032;2022-12-07T19:12:03;2.10;86.40
37322;DHT22;23697;48.684;9.032;2022-12-07T19:14:33;2.10;86.40
37322;DHT22;23697;48.684;9.032;2022-12-07T19:17:03;2.10;86.40
37322;DHT22;23697;48.684;9.032;2022-12-07T19:19:32;2.10;86.30
37322;DHT22;23697;48.684;9.032;2022-12-07T19:22:00;2.10;86.20
37322;DHT22;23697;48.684;9.032;2022-12-07T19:24:27;2.10;86.10
37322;DHT22;23697;48.684;9.032;2022-12-07T19:26:54;2.10;86.20
37322;DHT22;23697;48.684;9.032;2022-12-07T19:29:21;2.10;86.20
37322;DHT22;23697;48.684;9.032;2022-12-07T19:31:50;2.10;86.30
37322;DHT22;23697;48.684;9.032;2022-12-07T19:34:16;2.10;86.40
37322;DHT22;23697;48.684;9.032;2022-12-07T19:36:44;2.20;86.30
37322;DHT22;23697;48.684;9.032;2022-12-07T19:39:12;2.20;86.20
37322;DHT22;23697;48.684;9.032;2022-12-07T19:41:39;2.20;86.20
37322;DHT22;23697;48.684;9.032;2022-12-07T19:44:11;2.20;86.10
37322;DHT22;23697;48.684;9.032;2022-12-07T19:46:38;2.20;86.20
37322;DHT22;23697;48.684;9.032;2022-12-07T19:49:06;2.20;86.10
37322;DHT22;23697;48.684;9.032;2022-12-07T19:51:34;2.20;86.10
37322;DHT22;23697;48.684;9.032;2022-12-07T19:54:01;2.20;86.20
37322;DHT22;23697;48.684;9.032;2022-12-07T19:56:29;2.10;86.20
37322;DHT22;23697;48.684;9.032;2022-12-07T19:58:58;2.10;86.20
37322;DHT22;23697;48.684;9.032;2022-12-07T20:01:25;2.20;86.20
37322;DHT22;23697;48.684;9.032;2022-12-07T20:03:52;2.10;86.20
37322;DHT22;23697;48.684;9.032;2022-12-07T20:06:21;2.10;86.10
37322;DHT22;23697;48.684;9.032;2022-12-07T20:08:49;2.10;86.00
37322;DHT22;23697;48.684;9.032;2022-12-07T20:11:17;2.10;86.00
37322;DHT22;23697;48.684;9.032;2022-12-07T20:14:04;2.20;86.00
37322;DHT22;23697;48.684;9.032;2022-12-07T20:16:31;2.10;85.70
37322;DHT22;23697;48.684;9.032;2022-12-07T20:18:58;2.10;85.60
37322;DHT22;23697;48.684;9.032;2022-12-07T20:21:27;2.10;85.80
37322;DHT22;23697;48.684;9.032;2022-12-07T20:23:53;2.10;85.90
37322;DHT22;23697;48.684;9.032;2022-12-07T20:26:20;2.10;85.90
37322;DHT22;23697;48.684;9.032;2022-12-07T20:28:47;2.10;86.00
37322;DHT22;23697;48.684;9.032;2022-12-07T20:31:14;2.10;86.10